sensor_id;sensor_type;location;lat;lon;timestamp;pressure;altitude;pressure_sealevel;temperature;humidity
5755;BME280;2902;42.130;24.732;2023-07-13T00:02:22;99515.06;;;27.91;65.62
5755;BME280;2902;42.130;24.732;2023-07-13T00:04:48;99516.19;;;27.90;64.94
5755;BME280;2902;42.130;24.732;2023-07-13T00:07:15;99526.00;;;27.91;53.61
5755;BME280;2902;42.130;24.732;2023-07-13T00:09:47;99535.31;;;27.90;45.00
5755;BME280;2902;42.130;24.732;2023-07-13T00:12:25;99535.50;;;27.93;48.12
5755;BME280;2902;42.130;24.732;2023-07-13T00:14:53;99518.19;;;27.98;50.59
5755;BME280;2902;42.130;24.732;2023-07-13T00:17:19;99518.69;;;28.00;52.59
5755;BME280;2902;42.130;24.732;2023-07-13T00:19:46;99526.56;;;28.01;53.73
5755;BME280;2902;42.130;24.732;2023-07-13T00:22:13;99514.22;;;28.04;54.45
5755;BME280;2902;42.130;24.732;2023-07-13T00:24:40;99522.41;;;28.04;50.49
5755;BME280;2902;42.130;24.732;2023-07-13T00:27:09;99509.28;;;28.06;59.25
5755;BME280;2902;42.130;24.732;2023-07-13T00:29:36;99506.53;;;28.06;55.21
5755;BME280;2902;42.130;24.732;2023-07-13T00:32:03;99508.16;;;28.07;56.52
5755;BME280;2902;42.130;24.732;2023-07-13T00:34:31;99512.59;;;28.03;55.18
5755;BME280;2902;42.130;24.732;2023-07-13T00:36:57;99507.44;;;28.01;53.38
5755;BME280;2902;42.130;24.732;2023-07-13T00:39:24;99506.53;;;28.06;55.23
5755;BME280;2902;42.130;24.732;2023-07-13T00:41:51;99503.81;;;28.06;55.11
5755;BME280;2902;42.130;24.732;2023-07-13T00:44:20;99501.06;;;28.06;56.02
5755;BME280;2902;42.130;24.732;2023-07-13T00:46:49;99491.75;;;28.07;54.29
5755;BME280;2902;42.130;24.732;2023-07-13T00:49:18;99493.34;;;28.08;55.75
5755;BME280;2902;42.130;24.732;2023-07-13T00:51:49;99488.53;;;28.05;59.61
5755;BME280;2902;42.130;24.732;2023-07-13T00:54:21;99487.72;;;28.04;61.64
5755;BME280;2902;42.130;24.732;2023-07-13T00:56:51;99483.69;;;28.02;62.29
5755;BME280;2902;42.130;24.732;2023-07-13T00:59:21;99487.53;;;28.01;63.49
5755;BME280;2902;42.130;24.732;2023-07-13T01:01:49;99496.16;;;27.94;63.75
5755;BME280;2902;42.130;24.732;2023-07-13T01:04:16;99494.06;;;27.91;64.01
5755;BME280;2902;42.130;24.732;2023-07-13T01:06:43;99492.22;;;27.87;63.39
5755;BME280;2902;42.130;24.732;2023-07-13T01:09:13;99484.16;;;27.82;63.49
5755;BME280;2902;42.130;24.732;2023-07-13T01:11:41;99474.94;;;27.78;63.55
5755;BME280;2902;42.130;24.732;2023-07-13T01:14:08;99479.91;;;27.76;63.64
5755;BME280;2902;42.130;24.732;2023-07-13T01:16:37;99479.22;;;27.70;60.33
5755;BME280;2902;42.130;24.732;2023-07-13T01:19:13;99483.25;;;27.73;60.68
5755;BME280;2902;42.130;24.732;2023-07-13T01:21:49;99483.56;;;27.71;59.88
5755;BME280;2902;42.130;24.732;2023-07-13T01:24:16;99481.31;;;27.73;60.37
5755;BME280;2902;42.130;24.732;2023-07-13T01:26:43;99481.00;;;27.75;61.08
5755;BME280;2902;42.130;24.732;2023-07-13T01:29:10;99482.31;;;27.77;61.76
5755;BME280;2902;42.130;24.732;2023-07-13T01:31:36;99482.66;;;27.76;59.29
5755;BME280;2902;42.130;24.732;2023-07-13T01:34:03;99475.25;;;27.76;61.09
5755;BME280;2902;42.130;24.732;2023-07-13T01:36:30;99478.28;;;27.75;61.97
5755;BME280;2902;42.130;24.732;2023-07-13T01:38:58;99472.63;;;27.71;63.15
5755;BME280;2902;42.130;24.732;2023-07-13T01:41:25;99475.28;;;27.63;63.12
5755;BME280;2902;42.130;24.732;2023-07-13T01:43:51;99482.00;;;27.57;62.77
5755;BME280;2902;42.130;24.732;2023-07-13T01:46:18;99482.28;;;27.55;61.69
5755;BME280;2902;42.130;24.732;2023-07-13T01:48:44;99482.91;;;27.52;63.08
5755;BME280;2902;42.130;24.732;2023-07-13T01:51:11;99479.06;;;27.53;63.00
5755;BME280;2902;42.130;24.732;2023-07-13T01:53:38;99476.84;;;27.55;63.47
5755;BME280;2902;42.130;24.732;2023-07-13T01:56:06;99479.38;;;27.52;63.64
5755;BME280;2902;42.130;24.732;2023-07-13T01:58:33;99479.97;;;27.49;64.08
5755;BME280;2902;42.130;24.732;2023-07-13T02:01:00;99488.28;;;27.44;64.53
5755;BME280;2902;42.130;24.732;2023-07-13T02:03:26;99493.22;;;27.42;64.38
5755;BME280;2902;42.130;24.732;2023-07-13T02:05:53;99494.34;;;27.41;64.11
5755;BME280;2902;42.130;24.732;2023-07-13T02:08:20;99495.94;;;27.42;63.44
5755;BME280;2902;42.130;24.732;2023-07-13T02:10:46;99500.81;;;27.45;63.13
5755;BME280;2902;42.130;24.732;2023-07-13T02:13:14;99501.28;;;27.47;61.79
5755;BME280;2902;42.130;24.732;2023-07-13T02:15:41;99507.28;;;27.49;61.79
5755;BME280;2902;42.130;24.732;2023-07-13T02:18:08;99508.28;;;27.53;60.92
5755;BME280;2902;42.130;24.732;2023-07-13T02:20:35;99505.84;;;27.51;62.84
5755;BME280;2902;42.130;24.732;2023-07-13T02:23:01;99505.84;;;27.51;63.40
5755;BME280;2902;42.130;24.732;2023-07-13T02:25:28;99507.28;;;27.49;63.69
5755;BME280;2902;42.130;24.732;2023-07-13T02:27:55;99508.81;;;27.41;63.98
5755;BME280;2902;42.130;24.732;2023-07-13T02:30:23;99513.56;;;27.36;63.86
5755;BME280;2902;42.130;24.732;2023-07-13T02:32:50;99504.56;;;27.22;63.64
5755;BME280;2902;42.130;24.732;2023-07-13T02:35:17;99518.19;;;27.22;63.85
5755;BME280;2902;42.130;24.732;2023-07-13T02:37:44;99510.69;;;27.14;64.41
5755;BME280;2902;42.130;24.732;2023-07-13T02:40:10;99518.19;;;27.08;63.91
5755;BME280;2902;42.130;24.732;2023-07-13T02:42:37;99516.06;;;27.05;64.21
5755;BME280;2902;42.130;24.732;2023-07-13T02:45:05;99513.13;;;27.02;64.24
5755;BME280;2902;42.130;24.732;2023-07-13T02:47:33;99508.69;;;26.92;64.09
5755;BME280;2902;42.130;24.732;2023-07-13T02:50:00;99512.50;;;26.91;64.45
5755;BME280;2902;42.130;24.732;2023-07-13T02:52:27;99512.22;;;26.93;64.20
5755;BME280;2902;42.130;24.732;2023-07-13T02:54:53;99519.38;;;26.89;63.83
5755;BME280;2902;42.130;24.732;2023-07-13T02:57:20;99520.38;;;26.93;63.87
5755;BME280;2902;42.130;24.732;2023-07-13T02:59:47;99520.00;;;26.86;63.75
5755;BME280;2902;42.130;24.732;2023-07-13T03:02:13;99524.03;;;26.88;63.87
5755;BME280;2902;42.130;24.732;2023-07-13T03:04:41;99515.56;;;26.90;63.99
5755;BME280;2902;42.130;24.732;2023-07-13T03:07:08;99515.84;;;27.02;62.96
5755;BME280;2902;42.130;24.732;2023-07-13T03:09:35;99519.28;;;27.07;62.53
5755;BME280;2902;42.130;24.732;2023-07-13T03:12:03;99520.22;;;27.03;62.41
5755;BME280;2902;42.130;24.732;2023-07-13T03:14:29;99524.84;;;27.02;62.44
5755;BME280;2902;42.130;24.732;2023-07-13T03:16:56;99530.72;;;27.09;62.24
5755;BME280;2902;42.130;24.732;2023-07-13T03:19:23;99528.06;;;27.18;61.96
5755;BME280;2902;42.130;24.732;2023-07-13T03:21:51;99524.19;;;27.24;62.02
5755;BME280;2902;42.130;24.732;2023-07-13T03:24:19;99525.69;;;27.30;62.10
5755;BME280;2902;42.130;24.732;2023-07-13T03:26:46;99516.78;;;27.38;61.65
5755;BME280;2902;42.130;24.732;2023-07-13T03:29:12;99514.06;;;27.38;62.04
5755;BME280;2902;42.130;24.732;2023-07-13T03:31:39;99513.94;;;27.43;61.63
5755;BME280;2902;42.130;24.732;2023-07-13T03:34:06;99509.81;;;27.45;61.51
5755;BME280;2902;42.130;24.732;2023-07-13T03:36:33;99508.09;;;27.49;61.42
5755;BME280;2902;42.130;24.732;2023-07-13T03:39:03;99510.88;;;27.58;60.48
5755;BME280;2902;42.130;24.732;2023-07-13T03:41:34;99510.41;;;27.56;60.55
5755;BME280;2902;42.130;24.732;2023-07-13T03:44:00;99512.50;;;27.59;59.59
5755;BME280;2902;42.130;24.732;2023-07-13T03:46:28;99516.34;;;27.58;59.48
5755;BME280;2902;42.130;24.732;2023-07-13T03:48:54;99515.75;;;27.61;59.07
5755;BME280;2902;42.130;24.732;2023-07-13T03:51:21;99518.47;;;27.61;59.24
5755;BME280;2902;42.130;24.732;2023-07-13T03:53:48;99519.78;;;27.63;59.06
5755;BME280;2902;42.130;24.732;2023-07-13T03:56:18;99521.47;;;27.73;58.78
5755;BME280;2902;42.130;24.732;2023-07-13T03:58:46;99527.03;;;27.81;58.10
5755;BME280;2902;42.130;24.732;2023-07-13T04:01:14;99523.69;;;27.71;58.19
5755;BME280;2902;42.130;24.732;2023-07-13T04:03:41;99519.34;;;27.70;58.33
5755;BME280;2902;42.130;24.732;2023-07-13T04:06:14;99520.25;;;27.65;58.75
5755;BME280;2902;42.130;24.732;2023-07-13T04:08:47;99531.59;;;27.72;59.01
5755;BME280;2902;42.130;24.732;2023-07-13T04:11:16;99526.22;;;27.81;59.12
5755;BME280;2902;42.130;24.732;2023-07-13T04:13:43;99523.59;;;28.33;57.53
5755;BME280;2902;42.130;24.732;2023-07-13T04:16:10;99533.63;;;29.21;55.18
5755;BME280;2902;42.130;24.732;2023-07-13T04:18:37;99539.59;;;30.13;51.15
5755;BME280;2902;42.130;24.732;2023-07-13T04:21:03;99551.47;;;30.94;49.07
5755;BME280;2902;42.130;24.732;2023-07-13T04:23:30;99549.22;;;31.62;46.30
5755;BME280;2902;42.130;24.732;2023-07-13T04:25:57;99558.13;;;32.29;44.62
5755;BME280;2902;42.130;24.732;2023-07-13T04:28:25;99560.69;;;32.99;42.28
5755;BME280;2902;42.130;24.732;2023-07-13T04:30:52;99570.84;;;33.44;41.06
5755;BME280;2902;42.130;24.732;2023-07-13T04:33:19;99566.00;;;33.89;39.66
5755;BME280;2902;42.130;24.732;2023-07-13T04:35:47;99573.94;;;34.30;38.66
5755;BME280;2902;42.130;24.732;2023-07-13T04:38:14;99576.22;;;34.67;37.78
5755;BME280;2902;42.130;24.732;2023-07-13T04:40:42;99570.53;;;35.50;36.27
5755;BME280;2902;42.130;24.732;2023-07-13T04:43:09;99569.22;;;35.94;35.08
5755;BME280;2902;42.130;24.732;2023-07-13T04:45:37;99577.69;;;36.20;34.61
5755;BME280;2902;42.130;24.732;2023-07-13T04:48:04;99580.50;;;36.39;34.39
5755;BME280;2902;42.130;24.732;2023-07-13T04:50:31;99581.50;;;36.69;34.38
5755;BME280;2902;42.130;24.732;2023-07-13T04:52:58;99578.16;;;36.79;34.12
5755;BME280;2902;42.130;24.732;2023-07-13T04:55:25;99587.50;;;36.71;33.99
5755;BME280;2902;42.130;24.732;2023-07-13T04:57:56;99579.13;;;36.90;33.53
5755;BME280;2902;42.130;24.732;2023-07-13T05:00:24;99584.69;;;36.90;33.53
5755;BME280;2902;42.130;24.732;2023-07-13T05:02:54;99581.69;;;37.66;32.46
5755;BME280;2902;42.130;24.732;2023-07-13T05:05:21;99589.06;;;38.07;31.15
5755;BME280;2902;42.130;24.732;2023-07-13T05:07:48;99589.03;;;38.04;31.47
5755;BME280;2902;42.130;24.732;2023-07-13T05:10:14;99579.25;;;37.91;31.83
5755;BME280;2902;42.130;24.732;2023-07-13T05:12:41;99591.50;;;38.12;31.41
5755;BME280;2902;42.130;24.732;2023-07-13T05:15:10;99590.44;;;38.24;31.52
5755;BME280;2902;42.130;24.732;2023-07-13T05:17:37;99584.03;;;38.16;31.59
5755;BME280;2902;42.130;24.732;2023-07-13T05:20:08;99591.69;;;38.26;31.51
5755;BME280;2902;42.130;24.732;2023-07-13T05:22:35;99590.94;;;38.29;31.49
5755;BME280;2902;42.130;24.732;2023-07-13T05:25:05;99594.75;;;38.18;31.71
5755;BME280;2902;42.130;24.732;2023-07-13T05:27:32;99592.94;;;38.32;31.34
5755;BME280;2902;42.130;24.732;2023-07-13T05:29:59;99584.47;;;38.18;31.69
5755;BME280;2902;42.130;24.732;2023-07-13T05:32:26;99586.19;;;38.30;31.49
5755;BME280;2902;42.130;24.732;2023-07-13T05:34:52;99586.66;;;38.35;31.45
5755;BME280;2902;42.130;24.732;2023-07-13T05:37:20;99591.22;;;38.50;30.70
5755;BME280;2902;42.130;24.732;2023-07-13T05:39:47;99592.56;;;37.78;31.77
5755;BME280;2902;42.130;24.732;2023-07-13T05:42:14;99592.13;;;37.76;32.10
5755;BME280;2902;42.130;24.732;2023-07-13T05:44:41;99586.53;;;37.73;32.60
5755;BME280;2902;42.130;24.732;2023-07-13T05:47:08;99593.53;;;38.15;31.62
5755;BME280;2902;42.130;24.732;2023-07-13T05:49:34;99586.44;;;38.47;30.98
5755;BME280;2902;42.130;24.732;2023-07-13T05:52:01;99587.78;;;38.31;31.10
5755;BME280;2902;42.130;24.732;2023-07-13T05:54:29;99591.41;;;38.64;30.75
5755;BME280;2902;42.130;24.732;2023-07-13T05:56:56;99587.00;;;38.30;31.36
5755;BME280;2902;42.130;24.732;2023-07-13T05:59:22;99594.56;;;38.66;30.34
5755;BME280;2902;42.130;24.732;2023-07-13T06:01:50;99594.78;;;38.47;30.96
5755;BME280;2902;42.130;24.732;2023-07-13T06:04:17;99588.44;;;38.50;31.18
5755;BME280;2902;42.130;24.732;2023-07-13T06:06:44;99588.69;;;38.38;30.77
5755;BME280;2902;42.130;24.732;2023-07-13T06:09:10;99590.59;;;38.64;30.74
5755;BME280;2902;42.130;24.732;2023-07-13T06:11:38;99596.94;;;38.64;30.03
5755;BME280;2902;42.130;24.732;2023-07-13T06:14:05;99606.69;;;38.84;30.26
5755;BME280;2902;42.130;24.732;2023-07-13T06:16:32;99601.16;;;38.84;30.65
5755;BME280;2902;42.130;24.732;2023-07-13T06:18:59;99600.47;;;38.94;29.93
5755;BME280;2902;42.130;24.732;2023-07-13T06:21:25;99599.00;;;39.07;30.08
5755;BME280;2902;42.130;24.732;2023-07-13T06:23:52;99594.00;;;39.23;29.98
5755;BME280;2902;42.130;24.732;2023-07-13T06:26:20;99587.09;;;39.47;28.98
5755;BME280;2902;42.130;24.732;2023-07-13T06:28:48;99587.41;;;39.38;29.35
5755;BME280;2902;42.130;24.732;2023-07-13T06:31:15;99586.06;;;39.72;28.98
5755;BME280;2902;42.130;24.732;2023-07-13T06:33:41;99595.56;;;39.64;28.78
5755;BME280;2902;42.130;24.732;2023-07-13T06:36:09;99583.66;;;39.64;28.67
5755;BME280;2902;42.130;24.732;2023-07-13T06:38:36;99582.63;;;39.89;28.24
5755;BME280;2902;42.130;24.732;2023-07-13T06:41:04;99577.59;;;40.12;28.11
5755;BME280;2902;42.130;24.732;2023-07-13T06:43:30;99573.94;;;39.98;27.97
5755;BME280;2902;42.130;24.732;2023-07-13T06:45:59;99577.16;;;40.07;27.73
5755;BME280;2902;42.130;24.732;2023-07-13T06:48:26;99576.41;;;40.13;28.02
5755;BME280;2902;42.130;24.732;2023-07-13T06:50:53;99573.22;;;40.11;27.56
5755;BME280;2902;42.130;24.732;2023-07-13T06:53:20;99564.88;;;40.11;27.80
5755;BME280;2902;42.130;24.732;2023-07-13T06:55:47;99561.97;;;39.90;28.24
5755;BME280;2902;42.130;24.732;2023-07-13T06:58:15;99569.59;;;40.00;27.54
5755;BME280;2902;42.130;24.732;2023-07-13T07:00:42;99567.41;;;39.73;28.26
5755;BME280;2902;42.130;24.732;2023-07-13T07:03:10;99576.72;;;39.94;28.13
5755;BME280;2902;42.130;24.732;2023-07-13T07:05:37;99573.59;;;40.06;27.73
5755;BME280;2902;42.130;24.732;2023-07-13T07:08:04;99573.63;;;40.10;27.85
5755;BME280;2902;42.130;24.732;2023-07-13T07:10:31;99573.72;;;40.27;27.21
5755;BME280;2902;42.130;24.732;2023-07-13T07:12:58;99582.00;;;40.17;27.53
5755;BME280;2902;42.130;24.732;2023-07-13T07:15:25;99574.94;;;40.37;27.34
5755;BME280;2902;42.130;24.732;2023-07-13T07:17:52;99575.16;;;40.00;27.02
5755;BME280;2902;42.130;24.732;2023-07-13T07:20:20;99568.69;;;39.86;27.67
5755;BME280;2902;42.130;24.732;2023-07-13T07:22:47;99566.47;;;40.12;27.60
5755;BME280;2902;42.130;24.732;2023-07-13T07:25:14;99559.63;;;39.99;26.94
5755;BME280;2902;42.130;24.732;2023-07-13T07:27:41;99563.16;;;39.89;27.98
5755;BME280;2902;42.130;24.732;2023-07-13T07:30:08;99561.00;;;39.65;27.43
5755;BME280;2902;42.130;24.732;2023-07-13T07:32:35;99561.47;;;39.74;27.86
5755;BME280;2902;42.130;24.732;2023-07-13T07:35:02;99568.00;;;39.99;27.37
5755;BME280;2902;42.130;24.732;2023-07-13T07:37:30;99558.44;;;40.00;27.75
5755;BME280;2902;42.130;24.732;2023-07-13T07:39:57;99565.81;;;40.33;27.39
5755;BME280;2902;42.130;24.732;2023-07-13T07:42:24;99555.47;;;40.40;27.69
5755;BME280;2902;42.130;24.732;2023-07-13T07:44:51;99551.19;;;39.78;28.15
5755;BME280;2902;42.130;24.732;2023-07-13T07:47:18;99553.59;;;39.87;27.61
5755;BME280;2902;42.130;24.732;2023-07-13T07:49:44;99545.47;;;39.64;28.52
5755;BME280;2902;42.130;24.732;2023-07-13T07:52:11;99554.13;;;39.49;27.98
5755;BME280;2902;42.130;24.732;2023-07-13T07:54:39;99547.94;;;39.26;28.60
5755;BME280;2902;42.130;24.732;2023-07-13T07:57:06;99547.13;;;39.72;28.43
5755;BME280;2902;42.130;24.732;2023-07-13T07:59:33;99553.81;;;39.64;28.35
5755;BME280;2902;42.130;24.732;2023-07-13T08:02:00;99550.53;;;40.06;27.13
5755;BME280;2902;42.130;24.732;2023-07-13T08:04:27;99549.81;;;40.19;26.84
5755;BME280;2902;42.130;24.732;2023-07-13T08:06:55;99547.75;;;40.09;27.29
5755;BME280;2902;42.130;24.732;2023-07-13T08:09:22;99541.38;;;40.05;27.48
5755;BME280;2902;42.130;24.732;2023-07-13T08:11:50;99541.94;;;40.39;26.26
5755;BME280;2902;42.130;24.732;2023-07-13T08:14:17;99545.13;;;40.41;26.73
5755;BME280;2902;42.130;24.732;2023-07-13T08:16:44;99530.03;;;40.42;26.76
5755;BME280;2902;42.130;24.732;2023-07-13T08:19:11;99529.31;;;40.73;26.40
5755;BME280;2902;42.130;24.732;2023-07-13T08:21:37;99530.19;;;41.02;26.42
5755;BME280;2902;42.130;24.732;2023-07-13T08:24:04;99530.13;;;40.73;26.33
5755;BME280;2902;42.130;24.732;2023-07-13T08:26:31;99529.34;;;40.76;25.77
5755;BME280;2902;42.130;24.732;2023-07-13T08:28:59;99522.13;;;40.75;26.91
5755;BME280;2902;42.130;24.732;2023-07-13T08:31:27;99528.19;;;41.06;26.32
5755;BME280;2902;42.130;24.732;2023-07-13T08:33:54;99530.19;;;41.19;25.99
5755;BME280;2902;42.130;24.732;2023-07-13T08:36:20;99530.97;;;41.20;25.95
5755;BME280;2902;42.130;24.732;2023-07-13T08:38:47;99523.81;;;41.26;25.71
5755;BME280;2902;42.130;24.732;2023-07-13T08:41:15;99517.31;;;40.51;26.27
5755;BME280;2902;42.130;24.732;2023-07-13T08:43:46;99511.78;;;40.79;26.18
5755;BME280;2902;42.130;24.732;2023-07-13T08:46:18;99506.16;;;40.44;26.42
5755;BME280;2902;42.130;24.732;2023-07-13T08:48:49;99502.41;;;39.37;27.39
5755;BME280;2902;42.130;24.732;2023-07-13T08:51:29;99495.72;;;39.49;27.47
5755;BME280;2902;42.130;24.732;2023-07-13T08:53:58;99492.03;;;39.34;27.70
5755;BME280;2902;42.130;24.732;2023-07-13T08:56:28;99494.81;;;39.95;27.04
5755;BME280;2902;42.130;24.732;2023-07-13T08:58:57;99498.56;;;40.45;26.29
5755;BME280;2902;42.130;24.732;2023-07-13T09:01:31;99498.66;;;40.80;25.81
5755;BME280;2902;42.130;24.732;2023-07-13T09:04:05;99505.50;;;41.18;25.90
5755;BME280;2902;42.130;24.732;2023-07-13T09:06:46;99499.09;;;41.49;24.80
5755;BME280;2902;42.130;24.732;2023-07-13T09:09:22;99499.03;;;41.70;24.57
5755;BME280;2902;42.130;24.732;2023-07-13T09:11:59;99493.41;;;41.91;24.12
5755;BME280;2902;42.130;24.732;2023-07-13T09:14:43;99491.69;;;42.25;23.86
5755;BME280;2902;42.130;24.732;2023-07-13T09:17:17;99488.81;;;42.39;23.18
5755;BME280;2902;42.130;24.732;2023-07-13T09:19:46;99486.88;;;42.29;23.20
5755;BME280;2902;42.130;24.732;2023-07-13T09:22:18;99474.81;;;41.11;23.46
5755;BME280;2902;42.130;24.732;2023-07-13T09:24:53;99479.16;;;41.36;23.11
5755;BME280;2902;42.130;24.732;2023-07-13T09:27:24;99479.91;;;41.72;23.86
5755;BME280;2902;42.130;24.732;2023-07-13T09:30:01;99473.47;;;41.96;22.94
5755;BME280;2902;42.130;24.732;2023-07-13T09:32:32;99462.19;;;42.24;22.18
5755;BME280;2902;42.130;24.732;2023-07-13T09:34:59;99466.75;;;41.65;22.96
5755;BME280;2902;42.130;24.732;2023-07-13T09:37:30;99460.44;;;41.51;23.08
5755;BME280;2902;42.130;24.732;2023-07-13T09:39:59;99449.28;;;40.59;23.49
5755;BME280;2902;42.130;24.732;2023-07-13T09:42:31;99448.91;;;40.96;22.81
5755;BME280;2902;42.130;24.732;2023-07-13T09:45:00;99440.91;;;41.40;22.69
5755;BME280;2902;42.130;24.732;2023-07-13T09:47:29;99435.28;;;40.38;23.55
5755;BME280;2902;42.130;24.732;2023-07-13T09:49:58;99432.97;;;40.82;22.61
5755;BME280;2902;42.130;24.732;2023-07-13T09:52:26;99413.06;;;40.66;23.04
5755;BME280;2902;42.130;24.732;2023-07-13T09:54:54;99419.03;;;41.03;23.97
5755;BME280;2902;42.130;24.732;2023-07-13T09:57:25;99429.34;;;41.45;23.24
5755;BME280;2902;42.130;24.732;2023-07-13T09:59:54;99417.31;;;41.66;22.73
5755;BME280;2902;42.130;24.732;2023-07-13T10:02:29;99416.00;;;41.95;21.42
5755;BME280;2902;42.130;24.732;2023-07-13T10:05:02;99417.09;;;42.15;21.34
5755;BME280;2902;42.130;24.732;2023-07-13T10:07:30;99405.00;;;42.39;21.77
5755;BME280;2902;42.130;24.732;2023-07-13T10:09:59;99403.38;;;42.45;20.14
5755;BME280;2902;42.130;24.732;2023-07-13T10:12:28;99405.56;;;42.13;20.56
5755;BME280;2902;42.130;24.732;2023-07-13T10:14:59;99390.25;;;42.35;20.82
5755;BME280;2902;42.130;24.732;2023-07-13T10:17:31;99396.13;;;42.51;19.64
5755;BME280;2902;42.130;24.732;2023-07-13T10:20:02;99394.66;;;42.32;19.71
5755;BME280;2902;42.130;24.732;2023-07-13T10:22:37;99393.50;;;42.30;20.39
5755;BME280;2902;42.130;24.732;2023-07-13T10:25:15;99396.53;;;42.49;20.15
5755;BME280;2902;42.130;24.732;2023-07-13T10:27:43;99390.38;;;42.72;20.83
5755;BME280;2902;42.130;24.732;2023-07-13T10:30:14;99386.63;;;42.89;20.20
5755;BME280;2902;42.130;24.732;2023-07-13T10:32:43;99388.28;;;42.83;19.91
5755;BME280;2902;42.130;24.732;2023-07-13T10:35:14;99388.53;;;42.99;19.61
5755;BME280;2902;42.130;24.732;2023-07-13T10:37:48;99389.00;;;42.94;19.40
5755;BME280;2902;42.130;24.732;2023-07-13T10:40:18;99378.22;;;42.92;19.28
5755;BME280;2902;42.130;24.732;2023-07-13T10:42:48;99382.66;;;42.90;19.03
5755;BME280;2902;42.130;24.732;2023-07-13T10:45:19;99374.53;;;43.06;18.87
5755;BME280;2902;42.130;24.732;2023-07-13T10:47:47;99372.16;;;42.97;19.09
5755;BME280;2902;42.130;24.732;2023-07-13T10:50:19;99370.72;;;42.82;19.15
5755;BME280;2902;42.130;24.732;2023-07-13T10:52:48;99369.44;;;42.43;19.54
5755;BME280;2902;42.130;24.732;2023-07-13T10:55:38;99362.44;;;42.14;19.55
5755;BME280;2902;42.130;24.732;2023-07-13T10:58:13;99363.84;;;42.43;20.62
5755;BME280;2902;42.130;24.732;2023-07-13T11:00:47;99369.72;;;42.01;19.62
5755;BME280;2902;42.130;24.732;2023-07-13T11:03:17;99350.38;;;42.31;19.52
5755;BME280;2902;42.130;24.732;2023-07-13T11:05:49;99353.00;;;41.94;20.40
5755;BME280;2902;42.130;24.732;2023-07-13T11:08:20;99346.00;;;42.30;20.45
5755;BME280;2902;42.130;24.732;2023-07-13T11:10:57;99334.97;;;42.60;20.00
5755;BME280;2902;42.130;24.732;2023-07-13T11:13:58;99336.41;;;42.82;19.52
5755;BME280;2902;42.130;24.732;2023-07-13T11:16:36;99334.97;;;42.60;19.70
5755;BME280;2902;42.130;24.732;2023-07-13T11:19:27;99337.25;;;42.24;19.95
5755;BME280;2902;42.130;24.732;2023-07-13T11:22:20;99345.81;;;42.51;19.55
5755;BME280;2902;42.130;24.732;2023-07-13T11:24:49;99340.19;;;42.58;18.96
5755;BME280;2902;42.130;24.732;2023-07-13T11:27:33;99336.91;;;42.66;19.50
5755;BME280;2902;42.130;24.732;2023-07-13T11:30:23;99334.03;;;42.77;18.97
5755;BME280;2902;42.130;24.732;2023-07-13T11:32:52;99332.72;;;42.44;19.81
5755;BME280;2902;42.130;24.732;2023-07-13T11:35:33;99339.88;;;42.45;18.87
5755;BME280;2902;42.130;24.732;2023-07-13T11:38:02;99324.19;;;42.07;19.17
5755;BME280;2902;42.130;24.732;2023-07-13T11:40:35;99325.84;;;41.98;18.64
5755;BME280;2902;42.130;24.732;2023-07-13T11:43:02;99325.78;;;42.12;18.58
5755;BME280;2902;42.130;24.732;2023-07-13T11:45:33;99321.72;;;42.23;18.25
5755;BME280;2902;42.130;24.732;2023-07-13T11:47:59;99325.22;;;42.34;18.65
5755;BME280;2902;42.130;24.732;2023-07-13T11:50:27;99320.63;;;42.54;19.14
5755;BME280;2902;42.130;24.732;2023-07-13T11:52:54;99318.28;;;42.53;18.80
5755;BME280;2902;42.130;24.732;2023-07-13T11:55:24;99303.84;;;42.58;19.29
5755;BME280;2902;42.130;24.732;2023-07-13T11:57:55;99315.00;;;42.65;18.91
5755;BME280;2902;42.130;24.732;2023-07-13T12:00:26;99313.63;;;42.36;18.22
5755;BME280;2902;42.130;24.732;2023-07-13T12:02:56;99299.53;;;42.50;18.18
5755;BME280;2902;42.130;24.732;2023-07-13T12:05:25;99302.16;;;42.23;17.86
5755;BME280;2902;42.130;24.732;2023-07-13T12:07:51;99294.59;;;42.24;18.28
5755;BME280;2902;42.130;24.732;2023-07-13T12:10:21;99286.88;;;42.35;18.77
5755;BME280;2902;42.130;24.732;2023-07-13T12:12:52;99281.00;;;42.26;18.47
5755;BME280;2902;42.130;24.732;2023-07-13T12:15:20;99283.41;;;42.24;18.30
5755;BME280;2902;42.130;24.732;2023-07-13T12:17:47;99274.59;;;42.25;19.34
5755;BME280;2902;42.130;24.732;2023-07-13T12:20:21;99269.47;;;42.17;19.11
5755;BME280;2902;42.130;24.732;2023-07-13T12:22:51;99270.69;;;42.12;18.68
5755;BME280;2902;42.130;24.732;2023-07-13T12:25:19;99261.84;;;42.28;18.76
5755;BME280;2902;42.130;24.732;2023-07-13T12:27:47;99257.53;;;42.13;18.52
5755;BME280;2902;42.130;24.732;2023-07-13T12:30:27;99261.31;;;41.82;18.74
5755;BME280;2902;42.130;24.732;2023-07-13T12:33:06;99252.91;;;41.92;19.06
5755;BME280;2902;42.130;24.732;2023-07-13T12:35:40;99253.53;;;42.14;18.51
5755;BME280;2902;42.130;24.732;2023-07-13T12:38:10;99253.22;;;42.05;18.48
5755;BME280;2902;42.130;24.732;2023-07-13T12:40:38;99245.97;;;42.11;18.57
5755;BME280;2902;42.130;24.732;2023-07-13T12:43:11;99239.50;;;42.24;18.99
5755;BME280;2902;42.130;24.732;2023-07-13T12:45:54;99242.50;;;42.44;18.67
5755;BME280;2902;42.130;24.732;2023-07-13T12:48:21;99233.91;;;42.28;18.54
5755;BME280;2902;42.130;24.732;2023-07-13T12:50:50;99230.66;;;42.33;19.12
5755;BME280;2902;42.130;24.732;2023-07-13T12:53:19;99237.81;;;42.34;19.34
5755;BME280;2902;42.130;24.732;2023-07-13T12:55:48;99229.56;;;42.20;19.56
5755;BME280;2902;42.130;24.732;2023-07-13T12:58:18;99233.28;;;42.03;19.68
5755;BME280;2902;42.130;24.732;2023-07-13T13:00:50;99239.44;;;41.77;19.70
5755;BME280;2902;42.130;24.732;2023-07-13T13:03:23;99227.06;;;41.78;20.31
5755;BME280;2902;42.130;24.732;2023-07-13T13:05:57;99222.28;;;41.85;20.34
5755;BME280;2902;42.130;24.732;2023-07-13T13:08:25;99221.94;;;41.73;20.49
5755;BME280;2902;42.130;24.732;2023-07-13T13:10:51;99218.69;;;41.78;20.67
5755;BME280;2902;42.130;24.732;2023-07-13T13:13:18;99217.50;;;41.79;20.12
5755;BME280;2902;42.130;24.732;2023-07-13T13:15:45;99221.47;;;41.78;20.56
5755;BME280;2902;42.130;24.732;2023-07-13T13:18:17;99218.47;;;41.55;20.54
5755;BME280;2902;42.130;24.732;2023-07-13T13:20:45;99217.63;;;41.61;20.84